createdAt,value
2023-05-12T00:02:24.493Z,2.80
2023-05-12T00:04:55.174Z,2.88
2023-05-12T00:07:23.581Z,3.10
2023-05-12T00:09:51.846Z,2.90
2023-05-12T00:12:20.090Z,2.60
2023-05-12T00:14:48.332Z,2.72
2023-05-12T00:17:16.555Z,2.55
2023-05-12T00:19:44.869Z,2.60
2023-05-12T00:22:15.462Z,2.75
2023-05-12T00:24:43.734Z,2.80
2023-05-12T00:27:11.938Z,2.67
2023-05-12T00:29:40.549Z,2.80
2023-05-12T00:32:08.802Z,2.97
2023-05-12T00:34:37.164Z,2.60
2023-05-12T00:37:06.442Z,2.60
2023-05-12T00:39:36.312Z,2.53
2023-05-12T00:42:05.655Z,2.70
2023-05-12T00:44:33.994Z,3.08
2023-05-12T00:47:02.550Z,2.58
2023-05-12T00:49:31.237Z,2.67
2023-05-12T00:52:00.447Z,2.35
2023-05-12T00:54:29.382Z,2.50
2023-05-12T00:56:59.062Z,2.45
2023-05-12T00:59:29.684Z,2.30
2023-05-12T01:01:58.312Z,2.60
2023-05-12T01:04:29.511Z,2.63
2023-05-12T01:07:03.476Z,2.58
2023-05-12T01:09:31.907Z,2.85
2023-05-12T01:12:02.609Z,2.63
2023-05-12T01:17:03.574Z,2.80
2023-05-12T01:19:41.226Z,2.80
2023-05-12T01:22:12.342Z,2.83
2023-05-12T01:24:47.523Z,2.90
2023-05-12T01:27:18.818Z,3.10
2023-05-12T01:29:48.604Z,2.72
2023-05-12T01:34:47.921Z,3.15
2023-05-12T01:37:17.016Z,3.38
2023-05-12T01:39:46.122Z,3.40
2023-05-12T01:42:22.240Z,3.50
2023-05-12T01:44:51.676Z,3.47
2023-05-12T01:47:21.644Z,3.88
2023-05-12T01:50:08.006Z,3.28
2023-05-12T01:52:36.835Z,3.25
2023-05-12T01:55:09.155Z,4.53
2023-05-12T01:57:59.066Z,4.10
2023-05-12T02:00:28.427Z,4.07
2023-05-12T02:02:59.172Z,3.83
2023-05-12T02:05:27.561Z,4.10
2023-05-12T02:07:56.367Z,3.90
2023-05-12T02:10:24.865Z,3.88
2023-05-12T02:12:53.173Z,4.22
2023-05-12T02:15:22.948Z,4.28
2023-05-12T02:17:54.429Z,4.20
2023-05-12T02:20:24.274Z,4.75
2023-05-12T02:22:52.638Z,4.20
2023-05-12T02:25:21.308Z,5.03
2023-05-12T02:27:50.423Z,4.35
2023-05-12T02:30:19.908Z,4.43
2023-05-12T02:32:49.862Z,4.10
2023-05-12T02:35:18.388Z,4.43
2023-05-12T02:37:46.671Z,4.30
2023-05-12T02:40:16.088Z,4.70
2023-05-12T02:42:45.569Z,4.88
2023-05-12T02:45:14.346Z,4.65
2023-05-12T02:47:43.011Z,4.90
2023-05-12T02:50:13.538Z,4.75
2023-05-12T02:52:41.937Z,4.38
2023-05-12T02:55:11.060Z,4.72
2023-05-12T02:57:39.808Z,5.18
2023-05-12T03:00:09.164Z,5.22
2023-05-12T03:02:41.217Z,4.95
2023-05-12T03:05:10.360Z,5.03
2023-05-12T03:07:40.691Z,5.18
2023-05-12T03:10:11.241Z,4.57
2023-05-12T03:12:39.561Z,4.80
2023-05-12T03:15:08.926Z,5.30
2023-05-12T03:17:37.682Z,5.05
2023-05-12T03:20:07.001Z,4.88
2023-05-12T03:22:35.589Z,5.43
2023-05-12T03:25:05.949Z,5.47
2023-05-12T03:27:34.609Z,5.55
2023-05-12T03:30:05.242Z,5.45
2023-05-12T03:32:39.204Z,5.55
2023-05-12T03:35:10.961Z,5.82
2023-05-12T03:37:39.388Z,5.55
2023-05-12T03:40:12.670Z,5.43
2023-05-12T03:42:41.153Z,5.78
2023-05-12T03:45:11.064Z,5.22
2023-05-12T03:47:40.705Z,6.05
2023-05-12T03:50:10.502Z,5.45
2023-05-12T03:52:41.533Z,4.95
2023-05-12T03:55:11.583Z,5.75
2023-05-12T03:57:39.867Z,6.05
2023-05-12T04:00:09.420Z,5.78
2023-05-12T04:02:47.659Z,6.15
2023-05-12T04:05:16.243Z,6.20
2023-05-12T04:07:44.510Z,6.10
2023-05-12T04:10:14.182Z,6.13
2023-05-12T04:12:42.906Z,5.35
2023-05-12T04:15:14.525Z,6.05
2023-05-12T04:17:43.240Z,5.47
2023-05-12T04:20:11.824Z,5.68
2023-05-12T04:22:40.555Z,5.38
2023-05-12T04:25:10.148Z,5.90
2023-05-12T04:27:41.321Z,4.93
2023-05-12T04:30:10.816Z,5.72
2023-05-12T04:32:41.338Z,5.38
2023-05-12T04:35:10.612Z,5.32
2023-05-12T04:37:38.827Z,4.90
2023-05-12T04:40:08.881Z,5.85
2023-05-12T04:42:37.810Z,5.50
2023-05-12T04:45:10.903Z,5.15
2023-05-12T04:47:39.392Z,5.25
2023-05-12T04:50:10.321Z,5.13
2023-05-12T04:52:38.688Z,5.50
2023-05-12T04:55:07.808Z,5.00
2023-05-12T04:57:36.074Z,4.60
2023-05-12T05:00:06.096Z,4.47
2023-05-12T05:02:36.154Z,4.63
2023-05-12T05:05:05.740Z,4.60
2023-05-12T05:07:34.007Z,4.93
2023-05-12T05:10:02.305Z,3.75
2023-05-12T05:12:32.050Z,4.72
2023-05-12T05:15:00.336Z,4.57
2023-05-12T05:17:29.753Z,4.43
2023-05-12T05:20:00.002Z,4.55
2023-05-12T05:22:31.851Z,4.20
2023-05-12T05:25:00.587Z,3.90
2023-05-12T05:27:29.182Z,3.97
2023-05-12T05:29:57.837Z,4.30
2023-05-12T05:32:26.848Z,4.03
2023-05-12T05:34:55.257Z,4.10
2023-05-12T05:37:24.957Z,4.43
2023-05-12T05:39:53.253Z,4.00
2023-05-12T05:42:21.584Z,4.03
2023-05-12T05:44:49.888Z,3.63
2023-05-12T05:47:19.398Z,3.60
2023-05-12T05:49:47.794Z,3.53
2023-05-12T05:52:16.062Z,3.65
2023-05-12T05:54:45.859Z,3.35
2023-05-12T05:57:17.015Z,4.03
2023-05-12T05:59:46.518Z,4.68
2023-05-12T06:02:15.418Z,2.90
2023-05-12T06:04:44.089Z,2.83
2023-05-12T06:07:12.396Z,2.95
2023-05-12T06:09:40.584Z,2.83
2023-05-12T06:12:10.701Z,2.97
2023-05-12T06:14:38.972Z,3.10
2023-05-12T06:17:07.200Z,2.75
2023-05-12T06:19:35.543Z,3.35
2023-05-12T06:22:04.541Z,3.33
2023-05-12T06:24:32.809Z,3.00
2023-05-12T06:27:01.383Z,2.90
2023-05-12T06:29:31.083Z,2.90
2023-05-12T06:31:59.462Z,2.88
2023-05-12T06:34:27.836Z,2.65
2023-05-12T06:36:56.065Z,2.40
2023-05-12T06:39:25.417Z,3.13
2023-05-12T06:41:53.656Z,2.80
2023-05-12T06:44:22.958Z,2.95
2023-05-12T06:46:55.117Z,2.63
2023-05-12T06:49:23.459Z,3.30
2023-05-12T06:51:51.859Z,2.88
2023-05-12T06:54:20.086Z,3.13
2023-05-12T06:56:48.710Z,3.38
2023-05-12T06:59:16.914Z,3.00
2023-05-12T07:01:45.747Z,3.08
2023-05-12T07:04:15.411Z,3.38
2023-05-12T07:06:43.871Z,3.15
2023-05-12T07:09:12.102Z,3.35
2023-05-12T07:11:40.466Z,3.15
2023-05-12T07:14:09.336Z,2.97
2023-05-12T07:16:37.877Z,3.17
2023-05-12T07:19:08.930Z,3.13
2023-05-12T07:21:39.020Z,3.20
2023-05-12T07:24:07.877Z,2.80
2023-05-12T07:26:36.204Z,2.55
2023-05-12T07:29:05.471Z,2.67
2023-05-12T07:31:34.103Z,3.00
2023-05-12T07:34:02.504Z,3.67
2023-05-12T07:36:30.778Z,3.70
2023-05-12T07:39:00.389Z,3.70
2023-05-12T07:41:28.799Z,3.13
2023-05-12T07:43:57.004Z,3.10
2023-05-12T07:46:25.331Z,2.97
2023-05-12T07:48:53.572Z,3.40
2023-05-12T07:51:21.813Z,3.90
2023-05-12T07:53:50.098Z,2.90
2023-05-12T07:56:19.772Z,3.10
2023-05-12T07:58:48.088Z,3.28
2023-05-12T08:01:16.401Z,3.20
2023-05-12T08:03:45.039Z,3.25
2023-05-12T08:06:13.492Z,3.30
2023-05-12T08:08:41.831Z,3.00
2023-05-12T08:11:10.102Z,2.47
2023-05-12T08:13:39.869Z,2.72
2023-05-12T08:16:08.191Z,2.88
2023-05-12T08:18:36.760Z,3.20
2023-05-12T08:21:05.268Z,2.42
2023-05-12T08:23:33.668Z,2.25
2023-05-12T08:26:02.041Z,2.75
2023-05-12T08:28:30.610Z,2.80
2023-05-12T08:31:02.047Z,2.97
2023-05-12T08:33:31.716Z,2.97
2023-05-12T08:36:00.124Z,3.15
2023-05-12T08:38:28.958Z,2.78
2023-05-12T08:41:07.308Z,2.70
2023-05-12T08:43:43.280Z,3.03
2023-05-12T08:46:13.343Z,3.15
2023-05-12T08:48:42.727Z,3.17
2023-05-12T08:51:13.107Z,2.78
2023-05-12T08:53:43.319Z,2.97
2023-05-12T08:58:47.234Z,2.90
2023-05-12T09:01:18.662Z,2.90
2023-05-12T09:03:47.209Z,2.72
2023-05-12T09:06:15.718Z,3.25
2023-05-12T09:08:45.105Z,3.33
2023-05-12T09:11:14.093Z,3.47
2023-05-12T09:13:50.808Z,3.67
2023-05-12T09:16:25.636Z,3.20
2023-05-12T09:18:57.579Z,2.72
2023-05-12T09:21:26.616Z,3.33
2023-05-12T09:23:56.906Z,2.90
2023-05-12T09:26:26.798Z,3.15
2023-05-12T09:28:57.346Z,2.75
2023-05-12T09:31:28.039Z,2.33
2023-05-12T09:33:56.722Z,2.60
2023-05-12T09:36:27.052Z,2.10
2023-05-12T09:39:04.652Z,2.78
2023-05-12T09:41:35.980Z,2.55
2023-05-12T09:44:04.854Z,2.30
2023-05-12T09:46:34.778Z,2.05
2023-05-12T09:49:03.785Z,2.10
2023-05-12T09:51:32.352Z,1.90
2023-05-12T09:54:01.020Z,1.92
2023-05-12T09:56:31.556Z,1.52
2023-05-12T09:59:00.064Z,1.52
2023-05-12T10:01:28.890Z,1.60
2023-05-12T10:03:59.947Z,1.63
2023-05-12T10:06:31.383Z,1.30
2023-05-12T10:09:06.957Z,1.42
2023-05-12T10:11:35.857Z,1.30
2023-05-12T10:14:04.998Z,1.20
2023-05-12T10:16:34.900Z,1.50
2023-05-12T10:19:05.364Z,1.10
2023-05-12T10:21:34.256Z,1.55
2023-05-12T10:24:05.062Z,1.15
2023-05-12T10:26:35.046Z,1.30
2023-05-12T10:29:04.105Z,1.20
2023-05-12T10:31:32.995Z,1.20
2023-05-12T10:34:02.750Z,1.45
2023-05-12T10:36:32.639Z,1.27
2023-05-12T10:39:06.919Z,1.02
2023-05-12T10:41:36.417Z,1.20
2023-05-12T10:44:05.253Z,0.80
2023-05-12T10:46:33.942Z,0.90
2023-05-12T10:49:04.294Z,1.10
2023-05-12T10:51:36.250Z,1.00
2023-05-12T10:54:06.664Z,0.90
2023-05-12T10:56:45.030Z,1.02
2023-05-12T10:59:17.213Z,1.00
2023-05-12T11:02:00.331Z,1.23
2023-05-12T11:04:44.696Z,0.90
2023-05-12T11:07:16.555Z,0.68
2023-05-12T11:09:57.743Z,1.02
2023-05-12T11:12:30.297Z,0.55
2023-05-12T11:15:01.551Z,0.80
2023-05-12T11:17:30.414Z,0.50
2023-05-12T11:20:01.268Z,0.98
2023-05-12T11:22:31.282Z,0.60
2023-05-12T11:24:59.658Z,0.68
2023-05-12T11:27:28.166Z,0.70
2023-05-12T11:29:58.929Z,0.77
2023-05-12T11:32:27.323Z,0.60
2023-05-12T11:34:55.615Z,0.60
2023-05-12T11:37:24.055Z,1.20
2023-05-12T11:39:53.857Z,2.30
2023-05-12T11:42:24.417Z,1.20
2023-05-12T11:44:55.518Z,0.98
2023-05-12T11:47:24.584Z,0.98
2023-05-12T11:49:54.674Z,0.93
2023-05-12T11:52:25.639Z,0.98
2023-05-12T11:54:59.044Z,1.15
2023-05-12T11:57:28.630Z,1.20
2023-05-12T12:00:01.277Z,2.40
2023-05-12T12:02:29.816Z,1.92
2023-05-12T12:04:58.612Z,1.10
2023-05-12T12:07:31.760Z,1.00
2023-05-12T12:10:13.162Z,1.05
2023-05-12T12:12:41.643Z,1.33
2023-05-12T12:15:10.965Z,0.90
2023-05-12T12:17:40.056Z,0.70
2023-05-12T12:20:09.980Z,0.73
2023-05-12T12:22:38.279Z,0.90
2023-05-12T12:25:09.283Z,1.10
2023-05-12T12:27:37.608Z,1.30
2023-05-12T12:30:06.602Z,1.67
2023-05-12T12:32:34.922Z,1.73
2023-05-12T12:35:04.452Z,1.55
2023-05-12T12:37:33.017Z,1.75
2023-05-12T12:40:08.306Z,1.70
2023-05-12T12:42:39.686Z,1.55
2023-05-12T12:45:09.976Z,1.65
2023-05-12T12:47:39.168Z,1.70
2023-05-12T12:50:10.008Z,1.70
2023-05-12T12:52:39.096Z,1.38
2023-05-12T12:55:08.719Z,2.10
2023-05-12T12:57:38.349Z,1.60
2023-05-12T13:00:08.639Z,1.48
2023-05-12T13:02:37.244Z,2.10
2023-05-12T13:05:07.244Z,1.75
2023-05-12T13:07:35.677Z,1.60
2023-05-12T13:10:04.168Z,2.08
2023-05-12T13:12:32.699Z,1.73
2023-05-12T13:15:02.974Z,1.55
2023-05-12T13:17:31.323Z,2.13
2023-05-12T13:19:59.709Z,2.25
2023-05-12T13:22:29.012Z,2.40
2023-05-12T13:24:57.725Z,2.28
2023-05-12T13:27:26.151Z,2.55
2023-05-12T13:29:54.430Z,2.50
2023-05-12T13:32:24.098Z,2.83
2023-05-12T13:34:52.419Z,2.50
2023-05-12T13:37:20.790Z,2.60
2023-05-12T13:39:49.216Z,2.67
2023-05-12T13:42:18.045Z,3.45
2023-05-12T13:44:46.557Z,4.65
2023-05-12T13:47:14.889Z,4.97
2023-05-12T13:49:44.542Z,4.53
2023-05-12T13:52:12.807Z,5.15
2023-05-12T13:54:41.166Z,5.30
2023-05-12T13:57:09.347Z,5.75
2023-05-12T13:59:37.699Z,5.50
2023-05-12T14:02:09.586Z,5.43
2023-05-12T14:04:38.183Z,5.10
2023-05-12T14:07:08.913Z,5.70
2023-05-12T14:09:37.560Z,5.13
2023-05-12T14:12:06.480Z,5.93
2023-05-12T14:14:35.668Z,5.28
2023-05-12T14:17:03.981Z,5.55
2023-05-12T14:19:32.340Z,5.50
2023-05-12T14:22:00.782Z,4.97
2023-05-12T14:24:30.515Z,4.88
2023-05-12T14:26:59.665Z,4.72
2023-05-12T14:29:28.006Z,5.47
2023-05-12T14:31:56.718Z,5.18
2023-05-12T14:34:25.040Z,5.57
2023-05-12T14:36:54.028Z,5.53
2023-05-12T14:39:22.233Z,5.35
2023-05-12T14:41:51.965Z,5.00
2023-05-12T14:44:20.267Z,5.10
2023-05-12T14:46:48.553Z,4.78
2023-05-12T14:49:20.671Z,5.22
2023-05-12T14:51:49.682Z,4.95
2023-05-12T14:54:25.196Z,5.38
2023-05-12T14:56:56.664Z,4.95
2023-05-12T14:59:25.025Z,5.17
2023-05-12T15:01:53.498Z,5.05
2023-05-12T15:04:21.744Z,5.00
2023-05-12T15:06:50.286Z,5.20
2023-05-12T15:09:18.591Z,5.03
2023-05-12T15:11:47.075Z,4.65
2023-05-12T15:14:16.848Z,4.95
2023-05-12T15:16:45.342Z,5.07
2023-05-12T15:19:14.163Z,5.03
2023-05-12T15:21:42.509Z,5.07
2023-05-12T15:24:11.789Z,4.72
2023-05-12T15:26:40.624Z,5.10
2023-05-12T15:29:09.082Z,12.48
2023-05-12T15:31:38.809Z,54.63
2023-05-12T15:34:07.288Z,48.55
2023-05-12T15:36:35.647Z,40.50
2023-05-12T15:39:05.185Z,37.22
2023-05-12T15:41:33.708Z,31.30
2023-05-12T15:44:02.006Z,26.58
2023-05-12T15:46:31.124Z,30.48
2023-05-12T15:49:00.950Z,26.85
2023-05-12T15:51:29.894Z,17.33
2023-05-12T15:53:58.186Z,20.58
2023-05-12T15:56:26.708Z,75.93
2023-05-12T15:58:56.209Z,39.65
2023-05-12T16:01:24.587Z,47.17
2023-05-12T16:03:53.639Z,64.13
2023-05-12T16:06:23.857Z,51.58
2023-05-12T16:08:53.387Z,23.45
2023-05-12T16:11:22.373Z,21.45
2023-05-12T16:13:52.770Z,17.90
2023-05-12T16:16:21.424Z,16.83
2023-05-12T16:18:49.831Z,13.07
2023-05-12T16:21:18.205Z,11.13
2023-05-12T16:23:47.953Z,11.57
2023-05-12T16:26:16.306Z,9.38
2023-05-12T16:28:45.170Z,8.38
2023-05-12T16:31:18.080Z,7.82
2023-05-12T16:33:46.397Z,7.45
2023-05-12T16:36:15.339Z,7.00
2023-05-12T16:38:44.449Z,7.03
2023-05-12T16:41:14.137Z,5.97
2023-05-12T16:43:42.442Z,6.53
2023-05-12T16:46:10.732Z,6.43
2023-05-12T16:48:39.005Z,5.90
2023-05-12T16:51:08.891Z,6.68
2023-05-12T16:53:37.732Z,6.50
2023-05-12T16:56:06.436Z,5.75
2023-05-12T16:58:36.249Z,5.43
2023-05-12T17:01:05.509Z,4.53
2023-05-12T17:03:34.351Z,4.45
2023-05-12T17:06:02.841Z,4.05
2023-05-12T17:08:31.174Z,4.28
2023-05-12T17:10:59.841Z,3.63
2023-05-12T17:13:28.256Z,3.40
2023-05-12T17:15:58.512Z,3.15
2023-05-12T17:18:26.871Z,2.78
2023-05-12T17:20:55.206Z,2.80
2023-05-12T17:23:23.640Z,2.90
2023-05-12T17:25:52.195Z,2.70
2023-05-12T17:28:21.157Z,2.40
2023-05-12T17:30:50.164Z,2.50
2023-05-12T17:33:19.799Z,2.92
2023-05-12T17:36:07.806Z,2.88
2023-05-12T17:38:37.724Z,2.70
2023-05-12T17:41:06.316Z,2.70
2023-05-12T17:43:34.641Z,2.72
2023-05-12T17:46:02.993Z,2.92
2023-05-12T17:48:33.148Z,3.03
2023-05-12T17:51:02.243Z,2.60
2023-05-12T17:53:31.291Z,2.83
2023-05-12T17:56:00.150Z,2.78
2023-05-12T17:58:28.463Z,2.58
2023-05-12T18:00:57.288Z,2.78
2023-05-12T18:03:25.766Z,2.70
2023-05-12T18:05:55.785Z,2.50
2023-05-12T18:08:24.140Z,2.60
2023-05-12T18:10:52.577Z,2.53
2023-05-12T18:13:20.852Z,2.72
2023-05-12T18:15:50.059Z,2.90
2023-05-12T18:18:18.498Z,2.80
2023-05-12T18:20:46.771Z,2.55
2023-05-12T18:23:16.512Z,2.45
2023-05-12T18:25:45.041Z,3.00
2023-05-12T18:28:13.368Z,2.60
2023-05-12T18:30:41.666Z,2.85
2023-05-12T18:33:10.161Z,2.97
2023-05-12T18:35:38.591Z,2.80
2023-05-12T18:38:07.105Z,3.17
2023-05-12T18:40:36.778Z,2.80
2023-05-12T18:43:05.096Z,2.95
2023-05-12T18:45:33.400Z,3.03
2023-05-12T18:48:01.773Z,3.10
2023-05-12T18:50:31.060Z,3.40
2023-05-12T18:52:59.451Z,3.08
2023-05-12T18:55:27.738Z,3.00
2023-05-12T18:57:57.453Z,3.47
2023-05-12T19:00:27.619Z,3.67
2023-05-12T19:02:55.933Z,3.97
2023-05-12T19:05:24.548Z,3.85
2023-05-12T19:07:52.898Z,4.30
2023-05-12T19:10:21.445Z,3.78
2023-05-12T19:12:51.034Z,4.20
2023-05-12T19:15:22.071Z,3.80
2023-05-12T19:17:50.665Z,4.75
2023-05-12T19:20:19.126Z,4.63
2023-05-12T19:22:47.635Z,5.10
2023-05-12T19:25:18.023Z,5.70
2023-05-12T19:27:46.859Z,5.20
2023-05-12T19:30:16.237Z,5.25
2023-05-12T19:32:46.377Z,4.80
2023-05-12T19:35:15.995Z,5.03
2023-05-12T19:37:44.609Z,5.03
2023-05-12T19:40:13.444Z,4.78
2023-05-12T19:42:42.552Z,4.45
2023-05-12T19:45:11.890Z,4.90
2023-05-12T19:47:40.315Z,4.55
2023-05-12T19:50:11.421Z,5.10
2023-05-12T19:52:39.897Z,4.68
2023-05-12T19:55:09.094Z,5.00
2023-05-12T19:57:37.696Z,4.93
2023-05-12T20:00:07.385Z,4.70
2023-05-12T20:02:41.628Z,4.85
2023-05-12T20:05:11.778Z,5.10
2023-05-12T20:07:40.142Z,4.15
2023-05-12T20:10:09.535Z,5.18
2023-05-12T20:12:38.055Z,5.00
2023-05-12T20:15:08.757Z,4.70
2023-05-12T20:17:37.165Z,5.23
2023-05-12T20:20:06.208Z,4.80
2023-05-12T20:22:35.961Z,5.20
2023-05-12T20:25:04.934Z,5.45
2023-05-12T20:27:33.404Z,5.97
2023-05-12T20:30:02.405Z,5.45
2023-05-12T20:32:31.114Z,5.60
2023-05-12T20:34:59.711Z,5.75
2023-05-12T20:37:28.147Z,5.65
2023-05-12T20:39:57.908Z,5.75
2023-05-12T20:42:26.217Z,6.32
2023-05-12T20:44:55.345Z,5.78
2023-05-12T20:47:24.370Z,6.35
2023-05-12T20:49:57.115Z,5.40
2023-05-12T20:52:28.875Z,5.47
2023-05-12T20:54:59.603Z,5.57
2023-05-12T20:57:28.209Z,5.30
2023-05-12T20:59:57.540Z,5.75
2023-05-12T21:02:26.836Z,5.68
2023-05-12T21:04:55.829Z,5.18
2023-05-12T21:07:24.094Z,5.80
2023-05-12T21:09:52.460Z,5.53
2023-05-12T21:12:22.337Z,5.78
2023-05-12T21:14:50.724Z,5.95
2023-05-12T21:17:19.186Z,5.85
2023-05-12T21:19:47.532Z,6.40
2023-05-12T21:22:15.860Z,6.43
2023-05-12T21:24:44.294Z,6.30
2023-05-12T21:27:12.644Z,5.85
2023-05-12T21:29:42.219Z,80.43
2023-05-12T21:32:11.218Z,98.32
2023-05-12T21:34:39.553Z,120.47
2023-05-12T21:37:08.006Z,116.82
2023-05-12T21:39:36.425Z,119.80
2023-05-12T21:42:04.958Z,95.65
2023-05-12T21:44:33.202Z,58.40
2023-05-12T21:47:04.445Z,45.20
2023-05-12T21:49:34.196Z,35.65
2023-05-12T21:52:02.523Z,82.95
2023-05-12T21:54:33.554Z,134.73
2023-05-12T21:57:02.838Z,138.93
2023-05-12T21:59:31.179Z,186.10
2023-05-12T22:01:59.736Z,130.40
2023-05-12T22:04:29.474Z,139.93
2023-05-12T22:06:57.817Z,122.95
2023-05-12T22:09:26.157Z,94.70
2023-05-12T22:11:54.833Z,68.68
2023-05-12T22:14:23.076Z,47.88
2023-05-12T22:16:51.635Z,63.33
2023-05-12T22:19:19.894Z,103.78
2023-05-12T22:21:49.904Z,224.93
2023-05-12T22:24:18.327Z,164.88
2023-05-12T22:26:46.569Z,132.02
2023-05-12T22:29:14.892Z,84.75
2023-05-12T22:31:43.315Z,62.63
2023-05-12T22:34:11.743Z,53.38
2023-05-12T22:36:40.056Z,48.13
2023-05-12T22:39:10.044Z,36.53
2023-05-12T22:41:38.476Z,29.10
2023-05-12T22:44:06.795Z,22.45
2023-05-12T22:46:35.249Z,19.20
2023-05-12T22:49:03.574Z,16.40
2023-05-12T22:51:32.329Z,14.20
2023-05-12T22:54:00.715Z,12.85
2023-05-12T22:56:30.428Z,10.25
2023-05-12T22:58:58.827Z,9.80
2023-05-12T23:01:27.272Z,7.97
2023-05-12T23:03:55.647Z,7.55
2023-05-12T23:06:24.086Z,7.15
2023-05-12T23:08:53.024Z,7.15
2023-05-12T23:11:21.514Z,6.68
2023-05-12T23:13:51.416Z,6.65
2023-05-12T23:16:19.750Z,5.78
2023-05-12T23:18:48.043Z,5.65
2023-05-12T23:21:16.472Z,5.68
2023-05-12T23:23:44.704Z,5.15
2023-05-12T23:26:13.118Z,4.70
2023-05-12T23:28:41.447Z,5.00
2023-05-12T23:31:11.267Z,4.80
2023-05-12T23:33:39.576Z,4.18
2023-05-12T23:36:08.686Z,4.53
2023-05-12T23:38:36.992Z,4.38
2023-05-12T23:41:05.449Z,4.60
2023-05-12T23:43:33.808Z,4.72
2023-05-12T23:46:02.343Z,4.38
2023-05-12T23:48:32.400Z,4.50
2023-05-12T23:51:00.630Z,4.55
2023-05-12T23:53:28.864Z,4.90
2023-05-12T23:55:57.172Z,5.03
2023-05-12T23:58:25.379Z,4.93
